sensor_id;sensor_type;location;lat;lon;timestamp;temperature;humidity
11944;DHT22;6031;50.220;10.122;2023-07-31T00:01:43;16.90;1.00
11944;DHT22;6031;50.220;10.122;2023-07-31T00:04:08;16.90;1.00
11944;DHT22;6031;50.220;10.122;2023-07-31T00:06:34;17.00;1.00
11944;DHT22;6031;50.220;10.122;2023-07-31T00:08:59;16.90;1.00
11944;DHT22;6031;50.220;10.122;2023-07-31T00:11:25;16.80;1.00
11944;DHT22;6031;50.220;10.122;2023-07-31T00:13:53;16.90;1.00
11944;DHT22;6031;50.220;10.122;2023-07-31T00:16:19;16.90;1.00
11944;DHT22;6031;50.220;10.122;2023-07-31T00:18:44;16.80;1.00
11944;DHT22;6031;50.220;10.122;2023-07-31T00:21:10;16.90;1.00
11944;DHT22;6031;50.220;10.122;2023-07-31T00:23:35;16.90;1.00
11944;DHT22;6031;50.220;10.122;2023-07-31T00:26:01;16.90;1.00
11944;DHT22;6031;50.220;10.122;2023-07-31T00:28:26;16.90;1.00
11944;DHT22;6031;50.220;10.122;2023-07-31T00:30:53;17.00;1.00
11944;DHT22;6031;50.220;10.122;2023-07-31T00:33:19;16.90;1.00
11944;DHT22;6031;50.220;10.122;2023-07-31T00:35:45;16.90;1.00
11944;DHT22;6031;50.220;10.122;2023-07-31T00:38:10;16.90;1.00
11944;DHT22;6031;50.220;10.122;2023-07-31T00:40:36;16.90;1.00
11944;DHT22;6031;50.220;10.122;2023-07-31T00:43:02;16.90;1.00
11944;DHT22;6031;50.220;10.122;2023-07-31T00:45:29;16.90;52.20
11944;DHT22;6031;50.220;10.122;2023-07-31T00:47:54;16.90;56.10
11944;DHT22;6031;50.220;10.122;2023-07-31T00:50:22;16.90;38.50
11944;DHT22;6031;50.220;10.122;2023-07-31T00:52:49;16.90;30.50
11944;DHT22;6031;50.220;10.122;2023-07-31T00:55:15;16.90;99.90
11944;DHT22;6031;50.220;10.122;2023-07-31T00:57:41;16.80;97.10
11944;DHT22;6031;50.220;10.122;2023-07-31T01:00:07;16.90;51.70
11944;DHT22;6031;50.220;10.122;2023-07-31T01:02:33;16.90;85.50
11944;DHT22;6031;50.220;10.122;2023-07-31T01:11:51;16.90;99.90
11944;DHT22;6031;50.220;10.122;2023-07-31T01:14:08;16.90;99.90
11944;DHT22;6031;50.220;10.122;2023-07-31T01:16:33;16.90;99.90
11944;DHT22;6031;50.220;10.122;2023-07-31T01:18:59;16.80;99.90
11944;DHT22;6031;50.220;10.122;2023-07-31T01:25:15;16.70;1.00
11944;DHT22;6031;50.220;10.122;2023-07-31T01:27:57;16.70;1.00
11944;DHT22;6031;50.220;10.122;2023-07-31T01:30:27;16.60;1.00
11944;DHT22;6031;50.220;10.122;2023-07-31T01:32:57;16.60;1.00
11944;DHT22;6031;50.220;10.122;2023-07-31T01:35:23;16.60;1.00
11944;DHT22;6031;50.220;10.122;2023-07-31T01:37:52;16.60;1.00
11944;DHT22;6031;50.220;10.122;2023-07-31T01:40:19;16.70;1.00
11944;DHT22;6031;50.220;10.122;2023-07-31T01:42:44;16.70;1.00
11944;DHT22;6031;50.220;10.122;2023-07-31T01:45:10;16.60;1.00
11944;DHT22;6031;50.220;10.122;2023-07-31T01:47:36;16.60;1.00
11944;DHT22;6031;50.220;10.122;2023-07-31T01:50:01;16.60;1.00
11944;DHT22;6031;50.220;10.122;2023-07-31T01:52:27;16.50;1.00
11944;DHT22;6031;50.220;10.122;2023-07-31T01:54:53;16.50;1.00
11944;DHT22;6031;50.220;10.122;2023-07-31T01:57:19;16.50;1.00
11944;DHT22;6031;50.220;10.122;2023-07-31T01:59:44;16.40;1.00
11944;DHT22;6031;50.220;10.122;2023-07-31T02:02:10;16.40;1.00
11944;DHT22;6031;50.220;10.122;2023-07-31T02:04:35;16.40;1.00
11944;DHT22;6031;50.220;10.122;2023-07-31T02:07:01;16.50;1.00
11944;DHT22;6031;50.220;10.122;2023-07-31T02:09:27;16.60;1.00
11944;DHT22;6031;50.220;10.122;2023-07-31T02:11:52;16.50;1.00
11944;DHT22;6031;50.220;10.122;2023-07-31T02:14:17;16.50;1.00
11944;DHT22;6031;50.220;10.122;2023-07-31T02:16:43;16.50;1.00
11944;DHT22;6031;50.220;10.122;2023-07-31T02:19:09;16.60;1.00
11944;DHT22;6031;50.220;10.122;2023-07-31T02:21:34;16.60;1.00
11944;DHT22;6031;50.220;10.122;2023-07-31T02:24:00;16.60;1.00
11944;DHT22;6031;50.220;10.122;2023-07-31T02:26:25;16.60;1.00
11944;DHT22;6031;50.220;10.122;2023-07-31T02:28:51;16.60;1.00
11944;DHT22;6031;50.220;10.122;2023-07-31T02:31:16;16.60;1.00
11944;DHT22;6031;50.220;10.122;2023-07-31T02:33:42;16.70;1.00
11944;DHT22;6031;50.220;10.122;2023-07-31T02:36:07;16.70;1.00
11944;DHT22;6031;50.220;10.122;2023-07-31T02:38:33;16.70;1.00
11944;DHT22;6031;50.220;10.122;2023-07-31T02:40:58;16.70;1.00
11944;DHT22;6031;50.220;10.122;2023-07-31T02:43:24;16.60;1.00
11944;DHT22;6031;50.220;10.122;2023-07-31T02:45:52;16.60;1.00
11944;DHT22;6031;50.220;10.122;2023-07-31T02:48:18;16.70;1.00
11944;DHT22;6031;50.220;10.122;2023-07-31T02:50:44;16.70;1.00
11944;DHT22;6031;50.220;10.122;2023-07-31T02:53:10;16.70;1.00
11944;DHT22;6031;50.220;10.122;2023-07-31T02:55:35;16.70;1.00
11944;DHT22;6031;50.220;10.122;2023-07-31T02:58:01;16.80;99.90
11944;DHT22;6031;50.220;10.122;2023-07-31T03:00:27;16.80;1.00
11944;DHT22;6031;50.220;10.122;2023-07-31T03:02:53;16.80;1.00
11944;DHT22;6031;50.220;10.122;2023-07-31T03:05:18;16.80;1.00
11944;DHT22;6031;50.220;10.122;2023-07-31T03:07:44;16.80;1.00
11944;DHT22;6031;50.220;10.122;2023-07-31T03:10:09;16.70;1.00
11944;DHT22;6031;50.220;10.122;2023-07-31T03:12:35;16.70;1.00
11944;DHT22;6031;50.220;10.122;2023-07-31T03:15:00;16.70;1.00
11944;DHT22;6031;50.220;10.122;2023-07-31T03:17:26;16.60;1.00
11944;DHT22;6031;50.220;10.122;2023-07-31T03:19:51;16.60;1.00
11944;DHT22;6031;50.220;10.122;2023-07-31T03:22:17;16.70;1.00
11944;DHT22;6031;50.220;10.122;2023-07-31T03:24:42;16.70;1.00
11944;DHT22;6031;50.220;10.122;2023-07-31T03:27:08;16.70;1.00
11944;DHT22;6031;50.220;10.122;2023-07-31T03:29:33;16.70;1.00
11944;DHT22;6031;50.220;10.122;2023-07-31T03:31:59;16.70;1.00
11944;DHT22;6031;50.220;10.122;2023-07-31T03:34:25;16.60;1.00
11944;DHT22;6031;50.220;10.122;2023-07-31T03:36:50;16.70;1.00
11944;DHT22;6031;50.220;10.122;2023-07-31T03:39:16;16.70;1.00
11944;DHT22;6031;50.220;10.122;2023-07-31T03:41:41;16.70;1.00
11944;DHT22;6031;50.220;10.122;2023-07-31T03:44:07;16.70;1.00
11944;DHT22;6031;50.220;10.122;2023-07-31T03:46:33;16.70;1.00
11944;DHT22;6031;50.220;10.122;2023-07-31T03:48:59;16.70;1.00
11944;DHT22;6031;50.220;10.122;2023-07-31T03:51:24;16.70;1.00
11944;DHT22;6031;50.220;10.122;2023-07-31T03:53:50;16.80;1.00
11944;DHT22;6031;50.220;10.122;2023-07-31T03:56:15;16.80;1.00
11944;DHT22;6031;50.220;10.122;2023-07-31T03:58:41;16.70;1.00
11944;DHT22;6031;50.220;10.122;2023-07-31T04:01:06;16.80;1.00
11944;DHT22;6031;50.220;10.122;2023-07-31T04:03:32;16.70;99.90
11944;DHT22;6031;50.220;10.122;2023-07-31T04:05:57;16.70;99.90
11944;DHT22;6031;50.220;10.122;2023-07-31T04:08:23;16.70;99.90
11944;DHT22;6031;50.220;10.122;2023-07-31T04:10:49;16.70;99.90
11944;DHT22;6031;50.220;10.122;2023-07-31T04:13:15;16.70;1.00
11944;DHT22;6031;50.220;10.122;2023-07-31T04:15:40;16.70;1.00
11944;DHT22;6031;50.220;10.122;2023-07-31T04:18:06;16.80;1.00
11944;DHT22;6031;50.220;10.122;2023-07-31T04:20:32;16.90;1.00
11944;DHT22;6031;50.220;10.122;2023-07-31T04:22:57;16.90;1.00
11944;DHT22;6031;50.220;10.122;2023-07-31T04:25:23;16.80;1.00
11944;DHT22;6031;50.220;10.122;2023-07-31T04:27:48;16.90;1.00
11944;DHT22;6031;50.220;10.122;2023-07-31T04:30:14;17.00;1.00
11944;DHT22;6031;50.220;10.122;2023-07-31T04:32:39;17.00;1.00
11944;DHT22;6031;50.220;10.122;2023-07-31T04:35:05;17.10;99.90
11944;DHT22;6031;50.220;10.122;2023-07-31T04:37:31;17.10;99.90
11944;DHT22;6031;50.220;10.122;2023-07-31T04:39:56;17.10;1.00
11944;DHT22;6031;50.220;10.122;2023-07-31T04:42:22;17.10;1.00
11944;DHT22;6031;50.220;10.122;2023-07-31T04:44:47;17.10;1.00
11944;DHT22;6031;50.220;10.122;2023-07-31T04:47:13;17.30;99.90
11944;DHT22;6031;50.220;10.122;2023-07-31T04:49:39;17.30;99.90
11944;DHT22;6031;50.220;10.122;2023-07-31T04:52:04;17.30;99.90
11944;DHT22;6031;50.220;10.122;2023-07-31T04:54:30;17.40;99.90
11944;DHT22;6031;50.220;10.122;2023-07-31T04:56:55;17.50;99.90
11944;DHT22;6031;50.220;10.122;2023-07-31T04:59:21;17.50;99.90
11944;DHT22;6031;50.220;10.122;2023-07-31T05:01:47;17.60;55.30
11944;DHT22;6031;50.220;10.122;2023-07-31T05:04:13;17.70;96.40
11944;DHT22;6031;50.220;10.122;2023-07-31T05:06:39;17.80;97.50
11944;DHT22;6031;50.220;10.122;2023-07-31T05:09:05;17.80;1.00
11944;DHT22;6031;50.220;10.122;2023-07-31T05:11:30;17.80;65.00
11944;DHT22;6031;50.220;10.122;2023-07-31T05:13:56;17.80;39.00
11944;DHT22;6031;50.220;10.122;2023-07-31T05:16:21;17.90;1.00
11944;DHT22;6031;50.220;10.122;2023-07-31T05:18:47;17.90;11.10
11944;DHT22;6031;50.220;10.122;2023-07-31T05:21:12;18.00;1.00
11944;DHT22;6031;50.220;10.122;2023-07-31T05:23:38;18.00;1.00
11944;DHT22;6031;50.220;10.122;2023-07-31T05:26:05;18.00;1.00
11944;DHT22;6031;50.220;10.122;2023-07-31T05:28:30;18.00;1.00
11944;DHT22;6031;50.220;10.122;2023-07-31T05:31:00;18.10;1.00
11944;DHT22;6031;50.220;10.122;2023-07-31T05:33:26;18.10;1.00
11944;DHT22;6031;50.220;10.122;2023-07-31T05:35:51;18.10;1.00
11944;DHT22;6031;50.220;10.122;2023-07-31T05:38:17;18.20;1.00
11944;DHT22;6031;50.220;10.122;2023-07-31T05:40:43;18.10;1.00
11944;DHT22;6031;50.220;10.122;2023-07-31T05:43:08;18.20;1.00
11944;DHT22;6031;50.220;10.122;2023-07-31T05:45:35;18.30;1.00
11944;DHT22;6031;50.220;10.122;2023-07-31T05:48:00;18.30;1.00
11944;DHT22;6031;50.220;10.122;2023-07-31T05:50:26;18.30;1.00
11944;DHT22;6031;50.220;10.122;2023-07-31T05:52:51;18.30;1.00
11944;DHT22;6031;50.220;10.122;2023-07-31T05:55:17;18.20;1.00
11944;DHT22;6031;50.220;10.122;2023-07-31T05:57:43;18.20;1.00
11944;DHT22;6031;50.220;10.122;2023-07-31T06:00:11;18.20;1.00
11944;DHT22;6031;50.220;10.122;2023-07-31T06:02:37;18.10;1.00
11944;DHT22;6031;50.220;10.122;2023-07-31T06:05:04;18.00;51.30
11944;DHT22;6031;50.220;10.122;2023-07-31T06:07:34;18.10;80.90
11944;DHT22;6031;50.220;10.122;2023-07-31T06:09:59;18.10;16.20
11944;DHT22;6031;50.220;10.122;2023-07-31T06:12:30;18.10;1.00
11944;DHT22;6031;50.220;10.122;2023-07-31T06:14:56;18.10;1.00
11944;DHT22;6031;50.220;10.122;2023-07-31T06:17:22;18.20;1.00
11944;DHT22;6031;50.220;10.122;2023-07-31T06:19:47;18.30;1.00
11944;DHT22;6031;50.220;10.122;2023-07-31T06:22:13;18.30;1.00
11944;DHT22;6031;50.220;10.122;2023-07-31T06:24:38;18.30;1.00
11944;DHT22;6031;50.220;10.122;2023-07-31T06:27:04;18.30;1.00
11944;DHT22;6031;50.220;10.122;2023-07-31T06:29:31;18.20;1.00
11944;DHT22;6031;50.220;10.122;2023-07-31T06:31:57;18.20;1.00
11944;DHT22;6031;50.220;10.122;2023-07-31T06:34:22;18.20;88.60
11944;DHT22;6031;50.220;10.122;2023-07-31T06:36:48;18.20;18.00
11944;DHT22;6031;50.220;10.122;2023-07-31T06:39:13;18.10;7.60
11944;DHT22;6031;50.220;10.122;2023-07-31T06:41:39;18.00;99.90
11944;DHT22;6031;50.220;10.122;2023-07-31T06:44:04;18.10;99.90
11944;DHT22;6031;50.220;10.122;2023-07-31T06:46:30;18.10;99.90
11944;DHT22;6031;50.220;10.122;2023-07-31T06:48:55;18.10;99.90
11944;DHT22;6031;50.220;10.122;2023-07-31T06:51:21;18.10;99.90
11944;DHT22;6031;50.220;10.122;2023-07-31T06:53:46;18.10;99.90
11944;DHT22;6031;50.220;10.122;2023-07-31T06:56:12;18.10;99.90
11944;DHT22;6031;50.220;10.122;2023-07-31T06:58:38;18.10;99.90
11944;DHT22;6031;50.220;10.122;2023-07-31T07:01:03;18.20;99.90
11944;DHT22;6031;50.220;10.122;2023-07-31T07:03:29;18.30;99.90
11944;DHT22;6031;50.220;10.122;2023-07-31T07:05:54;18.40;90.40
11944;DHT22;6031;50.220;10.122;2023-07-31T07:08:20;18.40;40.70
11944;DHT22;6031;50.220;10.122;2023-07-31T07:10:46;18.40;77.20
11944;DHT22;6031;50.220;10.122;2023-07-31T07:13:12;18.50;57.60
11944;DHT22;6031;50.220;10.122;2023-07-31T07:15:38;18.70;1.00
11944;DHT22;6031;50.220;10.122;2023-07-31T07:18:04;18.90;1.00
11944;DHT22;6031;50.220;10.122;2023-07-31T07:20:30;18.80;1.00
11944;DHT22;6031;50.220;10.122;2023-07-31T07:22:55;18.90;1.00
11944;DHT22;6031;50.220;10.122;2023-07-31T07:25:21;18.90;1.00
11944;DHT22;6031;50.220;10.122;2023-07-31T07:27:46;18.60;1.00
11944;DHT22;6031;50.220;10.122;2023-07-31T07:30:12;18.70;77.80
11944;DHT22;6031;50.220;10.122;2023-07-31T07:32:39;18.90;54.90
11944;DHT22;6031;50.220;10.122;2023-07-31T07:35:06;19.30;1.00
11944;DHT22;6031;50.220;10.122;2023-07-31T07:37:31;19.40;1.00
11944;DHT22;6031;50.220;10.122;2023-07-31T07:39:57;19.60;1.00
11944;DHT22;6031;50.220;10.122;2023-07-31T07:42:22;19.70;1.00
11944;DHT22;6031;50.220;10.122;2023-07-31T07:44:48;20.10;1.00
11944;DHT22;6031;50.220;10.122;2023-07-31T07:47:14;20.30;99.90
11944;DHT22;6031;50.220;10.122;2023-07-31T07:49:39;20.30;99.90
11944;DHT22;6031;50.220;10.122;2023-07-31T07:52:05;20.70;99.90
11944;DHT22;6031;50.220;10.122;2023-07-31T07:54:31;21.00;81.60
11944;DHT22;6031;50.220;10.122;2023-07-31T07:56:56;21.20;99.90
11944;DHT22;6031;50.220;10.122;2023-07-31T07:59:22;21.30;27.20
11944;DHT22;6031;50.220;10.122;2023-07-31T08:01:47;21.50;24.80
11944;DHT22;6031;50.220;10.122;2023-07-31T08:04:13;21.80;1.00
11944;DHT22;6031;50.220;10.122;2023-07-31T08:06:38;21.80;1.00
11944;DHT22;6031;50.220;10.122;2023-07-31T08:09:04;22.00;1.00
11944;DHT22;6031;50.220;10.122;2023-07-31T08:11:32;22.30;1.00
11944;DHT22;6031;50.220;10.122;2023-07-31T08:13:57;22.80;1.00
11944;DHT22;6031;50.220;10.122;2023-07-31T08:16:23;22.90;1.00
11944;DHT22;6031;50.220;10.122;2023-07-31T08:18:49;23.10;1.00
11944;DHT22;6031;50.220;10.122;2023-07-31T08:21:14;24.30;1.00
11944;DHT22;6031;50.220;10.122;2023-07-31T08:23:40;25.00;1.00
11944;DHT22;6031;50.220;10.122;2023-07-31T08:26:06;25.30;1.00
11944;DHT22;6031;50.220;10.122;2023-07-31T08:28:31;24.90;1.00
11944;DHT22;6031;50.220;10.122;2023-07-31T08:30:57;23.70;1.00
11944;DHT22;6031;50.220;10.122;2023-07-31T08:33:22;23.40;1.00
11944;DHT22;6031;50.220;10.122;2023-07-31T08:35:48;22.90;1.00
11944;DHT22;6031;50.220;10.122;2023-07-31T08:38:14;22.40;1.00
11944;DHT22;6031;50.220;10.122;2023-07-31T08:40:39;22.30;1.00
11944;DHT22;6031;50.220;10.122;2023-07-31T08:43:05;21.70;1.00
11944;DHT22;6031;50.220;10.122;2023-07-31T08:45:31;21.80;1.00
11944;DHT22;6031;50.220;10.122;2023-07-31T08:47:58;21.60;1.00
11944;DHT22;6031;50.220;10.122;2023-07-31T08:50:24;21.30;1.00
11944;DHT22;6031;50.220;10.122;2023-07-31T08:52:51;21.20;1.00
11944;DHT22;6031;50.220;10.122;2023-07-31T08:55:17;20.90;99.90
11944;DHT22;6031;50.220;10.122;2023-07-31T08:57:48;21.30;45.90
11944;DHT22;6031;50.220;10.122;2023-07-31T09:00:15;21.40;2.40
11944;DHT22;6031;50.220;10.122;2023-07-31T09:02:46;21.50;2.60
11944;DHT22;6031;50.220;10.122;2023-07-31T09:05:14;21.40;1.00
11944;DHT22;6031;50.220;10.122;2023-07-31T09:07:42;21.40;1.00
11944;DHT22;6031;50.220;10.122;2023-07-31T09:10:11;21.60;1.00
11944;DHT22;6031;50.220;10.122;2023-07-31T09:12:38;21.50;1.00
11944;DHT22;6031;50.220;10.122;2023-07-31T09:15:04;21.60;11.20
11944;DHT22;6031;50.220;10.122;2023-07-31T09:17:37;21.50;1.00
11944;DHT22;6031;50.220;10.122;2023-07-31T09:20:20;21.40;1.00
11944;DHT22;6031;50.220;10.122;2023-07-31T09:22:47;21.90;1.00
11944;DHT22;6031;50.220;10.122;2023-07-31T09:25:24;22.60;1.00
11944;DHT22;6031;50.220;10.122;2023-07-31T09:27:54;22.80;1.00
11944;DHT22;6031;50.220;10.122;2023-07-31T09:30:21;22.60;1.00
11944;DHT22;6031;50.220;10.122;2023-07-31T09:32:48;23.00;1.00
11944;DHT22;6031;50.220;10.122;2023-07-31T09:35:21;24.30;1.00
11944;DHT22;6031;50.220;10.122;2023-07-31T09:38:03;25.70;1.00
11944;DHT22;6031;50.220;10.122;2023-07-31T09:40:37;27.00;1.00
11944;DHT22;6031;50.220;10.122;2023-07-31T09:43:05;27.20;1.00
11944;DHT22;6031;50.220;10.122;2023-07-31T09:45:34;29.10;1.00
11944;DHT22;6031;50.220;10.122;2023-07-31T09:48:00;29.00;1.00
11944;DHT22;6031;50.220;10.122;2023-07-31T09:50:25;28.90;1.00
11944;DHT22;6031;50.220;10.122;2023-07-31T09:52:52;29.00;1.00
11944;DHT22;6031;50.220;10.122;2023-07-31T09:55:18;29.00;1.00
11944;DHT22;6031;50.220;10.122;2023-07-31T09:57:48;28.20;1.00
11944;DHT22;6031;50.220;10.122;2023-07-31T10:00:16;27.30;1.00
11944;DHT22;6031;50.220;10.122;2023-07-31T10:02:46;27.00;1.00
11944;DHT22;6031;50.220;10.122;2023-07-31T10:05:14;25.70;1.00
11944;DHT22;6031;50.220;10.122;2023-07-31T10:07:43;24.80;1.00
11944;DHT22;6031;50.220;10.122;2023-07-31T10:10:09;25.40;1.00
11944;DHT22;6031;50.220;10.122;2023-07-31T10:12:36;26.00;1.00
11944;DHT22;6031;50.220;10.122;2023-07-31T10:15:02;26.30;1.00
11944;DHT22;6031;50.220;10.122;2023-07-31T10:17:29;25.40;1.00
11944;DHT22;6031;50.220;10.122;2023-07-31T10:19:57;25.20;1.00
11944;DHT22;6031;50.220;10.122;2023-07-31T10:22:23;25.00;1.00
11944;DHT22;6031;50.220;10.122;2023-07-31T10:24:50;24.90;1.00
11944;DHT22;6031;50.220;10.122;2023-07-31T10:27:17;24.30;1.00
11944;DHT22;6031;50.220;10.122;2023-07-31T10:29:43;24.20;1.00
11944;DHT22;6031;50.220;10.122;2023-07-31T10:32:12;23.30;1.00
11944;DHT22;6031;50.220;10.122;2023-07-31T10:34:40;22.80;1.00
11944;DHT22;6031;50.220;10.122;2023-07-31T10:37:25;22.50;1.00
11944;DHT22;6031;50.220;10.122;2023-07-31T10:40:05;22.00;1.00
11944;DHT22;6031;50.220;10.122;2023-07-31T10:42:36;21.70;1.00
11944;DHT22;6031;50.220;10.122;2023-07-31T10:45:09;21.40;3.40
11944;DHT22;6031;50.220;10.122;2023-07-31T10:47:59;21.40;99.90
11944;DHT22;6031;50.220;10.122;2023-07-31T10:50:26;21.20;99.90
11944;DHT22;6031;50.220;10.122;2023-07-31T10:52:56;21.10;99.90
11944;DHT22;6031;50.220;10.122;2023-07-31T10:55:42;21.10;1.00
11944;DHT22;6031;50.220;10.122;2023-07-31T10:58:13;21.30;99.90
11944;DHT22;6031;50.220;10.122;2023-07-31T11:00:43;21.40;1.00
11944;DHT22;6031;50.220;10.122;2023-07-31T11:03:13;21.50;99.90
11944;DHT22;6031;50.220;10.122;2023-07-31T11:08:27;21.90;1.00
11944;DHT22;6031;50.220;10.122;2023-07-31T11:13:33;21.90;1.00
11944;DHT22;6031;50.220;10.122;2023-07-31T11:15:59;22.20;1.00
11944;DHT22;6031;50.220;10.122;2023-07-31T11:18:26;22.50;1.00
11944;DHT22;6031;50.220;10.122;2023-07-31T11:20:53;22.80;99.90
11944;DHT22;6031;50.220;10.122;2023-07-31T11:23:19;22.90;99.90
11944;DHT22;6031;50.220;10.122;2023-07-31T11:25:45;22.80;99.90
11944;DHT22;6031;50.220;10.122;2023-07-31T11:28:13;22.70;99.90
11944;DHT22;6031;50.220;10.122;2023-07-31T11:30:39;22.40;99.90
11944;DHT22;6031;50.220;10.122;2023-07-31T11:33:10;22.30;1.00
11944;DHT22;6031;50.220;10.122;2023-07-31T11:35:41;22.30;1.00
11944;DHT22;6031;50.220;10.122;2023-07-31T11:38:07;22.20;1.00
11944;DHT22;6031;50.220;10.122;2023-07-31T11:40:44;22.20;99.90
11944;DHT22;6031;50.220;10.122;2023-07-31T11:43:10;22.10;1.00
11944;DHT22;6031;50.220;10.122;2023-07-31T11:45:37;21.80;1.00
11944;DHT22;6031;50.220;10.122;2023-07-31T11:48:05;21.40;1.00
11944;DHT22;6031;50.220;10.122;2023-07-31T11:50:33;21.30;1.00
11944;DHT22;6031;50.220;10.122;2023-07-31T11:53:01;21.50;1.00
11944;DHT22;6031;50.220;10.122;2023-07-31T11:55:28;21.50;1.00
11944;DHT22;6031;50.220;10.122;2023-07-31T11:57:56;21.40;99.90
11944;DHT22;6031;50.220;10.122;2023-07-31T12:00:22;21.50;1.00
11944;DHT22;6031;50.220;10.122;2023-07-31T12:02:49;21.60;99.90
11944;DHT22;6031;50.220;10.122;2023-07-31T12:05:15;21.70;1.00
11944;DHT22;6031;50.220;10.122;2023-07-31T12:10:11;21.60;99.90
11944;DHT22;6031;50.220;10.122;2023-07-31T12:12:36;21.90;99.90
11944;DHT22;6031;50.220;10.122;2023-07-31T12:15:02;21.80;99.90
11944;DHT22;6031;50.220;10.122;2023-07-31T12:17:27;22.20;99.90
11944;DHT22;6031;50.220;10.122;2023-07-31T12:19:53;22.50;11.00
11944;DHT22;6031;50.220;10.122;2023-07-31T12:22:20;23.20;1.00
11944;DHT22;6031;50.220;10.122;2023-07-31T12:24:46;23.30;1.00
11944;DHT22;6031;50.220;10.122;2023-07-31T12:27:13;23.40;1.00
11944;DHT22;6031;50.220;10.122;2023-07-31T12:29:41;23.60;1.00
11944;DHT22;6031;50.220;10.122;2023-07-31T12:32:23;23.90;1.00
11944;DHT22;6031;50.220;10.122;2023-07-31T12:34:49;24.10;1.00
11944;DHT22;6031;50.220;10.122;2023-07-31T12:37:15;24.30;1.00
11944;DHT22;6031;50.220;10.122;2023-07-31T12:39:40;24.20;1.00
11944;DHT22;6031;50.220;10.122;2023-07-31T12:42:06;24.50;1.00
11944;DHT22;6031;50.220;10.122;2023-07-31T12:44:31;25.20;1.00
11944;DHT22;6031;50.220;10.122;2023-07-31T12:46:57;25.50;1.00
11944;DHT22;6031;50.220;10.122;2023-07-31T12:49:22;25.50;1.00
11944;DHT22;6031;50.220;10.122;2023-07-31T12:51:48;25.10;1.00
11944;DHT22;6031;50.220;10.122;2023-07-31T12:54:14;24.50;1.00
11944;DHT22;6031;50.220;10.122;2023-07-31T12:56:40;24.10;1.00
11944;DHT22;6031;50.220;10.122;2023-07-31T12:59:05;23.80;1.00
11944;DHT22;6031;50.220;10.122;2023-07-31T13:01:31;23.60;1.00
11944;DHT22;6031;50.220;10.122;2023-07-31T13:03:57;23.40;1.00
11944;DHT22;6031;50.220;10.122;2023-07-31T13:06:25;23.30;1.00
11944;DHT22;6031;50.220;10.122;2023-07-31T13:08:51;23.20;1.00
11944;DHT22;6031;50.220;10.122;2023-07-31T13:11:16;23.10;1.00
11944;DHT22;6031;50.220;10.122;2023-07-31T13:13:42;22.90;1.00
11944;DHT22;6031;50.220;10.122;2023-07-31T13:16:07;22.50;1.00
11944;DHT22;6031;50.220;10.122;2023-07-31T13:18:33;22.10;1.00
11944;DHT22;6031;50.220;10.122;2023-07-31T13:20:58;22.00;1.00
11944;DHT22;6031;50.220;10.122;2023-07-31T13:23:24;21.90;1.00
11944;DHT22;6031;50.220;10.122;2023-07-31T13:25:50;22.00;1.00
11944;DHT22;6031;50.220;10.122;2023-07-31T13:28:15;21.90;1.00
11944;DHT22;6031;50.220;10.122;2023-07-31T13:30:41;22.00;1.00
11944;DHT22;6031;50.220;10.122;2023-07-31T13:33:06;22.10;1.00
11944;DHT22;6031;50.220;10.122;2023-07-31T13:35:32;22.10;1.00
11944;DHT22;6031;50.220;10.122;2023-07-31T13:37:57;21.90;1.00
11944;DHT22;6031;50.220;10.122;2023-07-31T13:40:23;21.90;1.00
11944;DHT22;6031;50.220;10.122;2023-07-31T13:42:48;21.80;1.00
11944;DHT22;6031;50.220;10.122;2023-07-31T13:45:14;21.70;1.00
11944;DHT22;6031;50.220;10.122;2023-07-31T13:47:40;21.60;1.00
11944;DHT22;6031;50.220;10.122;2023-07-31T13:50:06;21.60;1.00
11944;DHT22;6031;50.220;10.122;2023-07-31T13:52:31;21.60;1.00
11944;DHT22;6031;50.220;10.122;2023-07-31T13:54:57;21.70;1.00
11944;DHT22;6031;50.220;10.122;2023-07-31T13:57:22;21.70;1.00
11944;DHT22;6031;50.220;10.122;2023-07-31T13:59:48;21.80;1.00
11944;DHT22;6031;50.220;10.122;2023-07-31T14:02:14;22.00;1.00
11944;DHT22;6031;50.220;10.122;2023-07-31T14:04:40;22.10;1.00
11944;DHT22;6031;50.220;10.122;2023-07-31T14:07:06;22.00;1.00
11944;DHT22;6031;50.220;10.122;2023-07-31T14:09:31;22.00;1.00
11944;DHT22;6031;50.220;10.122;2023-07-31T14:11:57;21.90;1.00
11944;DHT22;6031;50.220;10.122;2023-07-31T14:14:22;21.90;1.00
11944;DHT22;6031;50.220;10.122;2023-07-31T14:16:48;21.80;1.00
11944;DHT22;6031;50.220;10.122;2023-07-31T14:19:13;21.70;1.00
11944;DHT22;6031;50.220;10.122;2023-07-31T14:21:39;21.60;1.00
11944;DHT22;6031;50.220;10.122;2023-07-31T14:24:04;21.50;1.00
11944;DHT22;6031;50.220;10.122;2023-07-31T14:26:30;21.40;1.00
11944;DHT22;6031;50.220;10.122;2023-07-31T14:28:55;21.20;1.00
11944;DHT22;6031;50.220;10.122;2023-07-31T14:31:21;21.10;1.00
11944;DHT22;6031;50.220;10.122;2023-07-31T14:33:47;21.20;1.00
11944;DHT22;6031;50.220;10.122;2023-07-31T14:36:12;21.30;47.20
11944;DHT22;6031;50.220;10.122;2023-07-31T14:38:37;21.30;1.00
11944;DHT22;6031;50.220;10.122;2023-07-31T14:41:03;21.50;1.00
11944;DHT22;6031;50.220;10.122;2023-07-31T14:43:29;21.60;1.00
11944;DHT22;6031;50.220;10.122;2023-07-31T14:45:54;21.80;1.00
11944;DHT22;6031;50.220;10.122;2023-07-31T14:48:23;21.90;1.00
11944;DHT22;6031;50.220;10.122;2023-07-31T14:50:48;22.00;1.00
11944;DHT22;6031;50.220;10.122;2023-07-31T14:53:14;21.90;1.00
11944;DHT22;6031;50.220;10.122;2023-07-31T14:55:39;21.90;1.00
11944;DHT22;6031;50.220;10.122;2023-07-31T14:58:05;21.90;1.00
11944;DHT22;6031;50.220;10.122;2023-07-31T15:00:31;22.00;1.00
11944;DHT22;6031;50.220;10.122;2023-07-31T15:02:56;21.90;1.00
11944;DHT22;6031;50.220;10.122;2023-07-31T15:05:22;22.00;1.00
11944;DHT22;6031;50.220;10.122;2023-07-31T15:07:47;22.40;1.00
11944;DHT22;6031;50.220;10.122;2023-07-31T15:10:13;22.70;1.00
11944;DHT22;6031;50.220;10.122;2023-07-31T15:12:40;23.00;1.00
11944;DHT22;6031;50.220;10.122;2023-07-31T15:15:06;23.20;1.00
11944;DHT22;6031;50.220;10.122;2023-07-31T15:17:32;23.00;1.00
11944;DHT22;6031;50.220;10.122;2023-07-31T15:19:57;22.70;1.00
11944;DHT22;6031;50.220;10.122;2023-07-31T15:22:23;22.60;1.00
11944;DHT22;6031;50.220;10.122;2023-07-31T15:24:50;22.40;1.00
11944;DHT22;6031;50.220;10.122;2023-07-31T15:27:15;22.30;1.00
11944;DHT22;6031;50.220;10.122;2023-07-31T15:29:41;22.30;1.00
11944;DHT22;6031;50.220;10.122;2023-07-31T15:32:07;22.20;1.00
11944;DHT22;6031;50.220;10.122;2023-07-31T15:34:32;22.20;1.00
11944;DHT22;6031;50.220;10.122;2023-07-31T15:36:58;22.10;1.00
11944;DHT22;6031;50.220;10.122;2023-07-31T15:39:24;22.00;1.00
11944;DHT22;6031;50.220;10.122;2023-07-31T15:41:49;21.80;1.00
11944;DHT22;6031;50.220;10.122;2023-07-31T15:44:15;21.80;1.00
11944;DHT22;6031;50.220;10.122;2023-07-31T15:46:40;21.70;1.00
11944;DHT22;6031;50.220;10.122;2023-07-31T15:49:06;21.60;1.00
11944;DHT22;6031;50.220;10.122;2023-07-31T15:51:33;21.60;1.00
11944;DHT22;6031;50.220;10.122;2023-07-31T15:53:59;21.70;1.00
11944;DHT22;6031;50.220;10.122;2023-07-31T15:56:24;21.80;1.00